createdAt,value
2018-01-08T00:01:22.160Z,8.67
2018-01-08T00:03:49.445Z,8.90
2018-01-08T00:06:16.734Z,8.57
2018-01-08T00:08:43.992Z,8.70
2018-01-08T00:11:11.273Z,8.60
2018-01-08T00:13:38.557Z,9.60
2018-01-08T00:16:05.817Z,10.13
2018-01-08T05:10:56.983Z,13.47
2018-01-08T05:13:24.268Z,14.17
2018-01-08T05:15:51.552Z,14.10
2018-01-08T05:18:18.816Z,15.30
2018-01-08T05:20:46.093Z,13.50
2018-01-08T05:23:13.388Z,14.30
2018-01-08T05:25:40.683Z,13.53
2018-01-08T05:28:07.971Z,13.83
2018-01-08T05:30:35.285Z,13.30
2018-01-08T05:33:02.548Z,13.07
2018-01-08T05:35:29.845Z,15.17
2018-01-08T05:37:57.146Z,13.70
2018-01-08T05:40:24.486Z,14.83
2018-01-08T05:42:51.784Z,14.10
2018-01-08T05:45:19.068Z,16.20
2018-01-08T05:47:46.594Z,13.27
2018-01-08T05:50:13.908Z,13.67
2018-01-08T05:52:41.173Z,14.37
2018-01-08T05:55:08.432Z,13.70
2018-01-08T05:57:35.727Z,13.90
2018-01-08T06:00:02.997Z,14.20
2018-01-08T06:02:30.277Z,16.63
2018-01-08T06:04:57.590Z,14.73
2018-01-08T06:07:24.837Z,15.50
2018-01-08T06:09:52.101Z,15.13
2018-01-08T06:12:19.397Z,16.53
2018-01-08T06:14:46.660Z,15.80
2018-01-08T06:17:13.923Z,14.07
2018-01-08T06:19:41.224Z,15.20
2018-01-08T06:22:08.488Z,15.50
2018-01-08T06:24:35.777Z,14.00
2018-01-08T06:27:03.036Z,14.97
2018-01-08T06:29:30.330Z,14.87
2018-01-08T06:31:57.623Z,14.33
2018-01-08T06:34:24.892Z,14.70
2018-01-08T06:36:52.182Z,13.43
2018-01-08T06:39:19.439Z,15.20
2018-01-08T06:41:46.734Z,16.40
2018-01-08T06:44:14.000Z,15.70
2018-01-08T06:46:41.305Z,15.23
2018-01-08T06:49:08.592Z,17.00
2018-01-08T06:51:35.848Z,16.60
2018-01-08T06:54:03.136Z,16.60
2018-01-08T06:56:30.401Z,16.10
2018-01-08T06:58:57.688Z,15.73
2018-01-08T07:01:24.973Z,17.63
2018-01-08T07:03:52.237Z,17.53
2018-01-08T07:06:19.530Z,17.90
2018-01-08T07:08:46.816Z,18.13
2018-01-08T07:11:14.080Z,17.37
2018-01-08T07:13:41.362Z,16.27
2018-01-08T07:16:08.631Z,15.97
2018-01-08T07:18:35.912Z,18.50
2018-01-08T07:21:03.204Z,16.70
2018-01-08T07:23:30.492Z,17.53
2018-01-08T07:25:57.750Z,17.27
2018-01-08T07:28:25.038Z,18.07
2018-01-08T07:30:52.305Z,17.33
2018-01-08T07:33:19.589Z,19.80
2018-01-08T07:35:46.889Z,17.57
2018-01-08T07:38:14.151Z,17.93
2018-01-08T07:40:41.419Z,16.17
2018-01-08T07:43:08.833Z,17.97
2018-01-08T07:45:36.115Z,16.80
2018-01-08T07:48:03.412Z,17.60
2018-01-08T07:50:30.664Z,17.57
2018-01-08T07:52:57.965Z,17.57
2018-01-08T07:55:25.225Z,16.87
2018-01-08T07:57:52.484Z,16.77
2018-01-08T08:00:19.873Z,16.93
2018-01-08T08:02:47.139Z,16.10
2018-01-08T08:05:14.404Z,15.53
2018-01-08T08:07:41.693Z,15.70
2018-01-08T08:10:08.973Z,14.93
2018-01-08T08:12:36.287Z,16.87
2018-01-08T08:15:03.533Z,17.40
2018-01-08T08:17:31.044Z,16.93
2018-01-08T08:19:58.525Z,16.40
2018-01-08T08:22:25.810Z,15.40
2018-01-08T08:24:53.072Z,16.23
2018-01-08T08:27:20.382Z,17.30
2018-01-08T08:29:47.664Z,16.77
2018-01-08T08:32:14.944Z,16.07
2018-01-08T08:34:42.244Z,18.10
2018-01-08T08:37:09.533Z,15.57
2018-01-08T08:39:36.793Z,16.40
2018-01-08T08:42:04.101Z,16.17
2018-01-08T08:44:31.360Z,15.53
2018-01-08T08:46:58.628Z,14.70
2018-01-08T08:49:25.919Z,15.57
2018-01-08T08:51:53.208Z,14.93
2018-01-08T08:54:20.468Z,14.50
2018-01-08T08:56:47.760Z,14.90
2018-01-08T08:59:15.049Z,14.10
2018-01-08T09:01:42.339Z,14.30
2018-01-08T09:04:09.622Z,15.23
2018-01-08T09:06:36.912Z,14.13
2018-01-08T09:09:04.207Z,15.10
2018-01-08T09:11:31.488Z,13.93
2018-01-08T09:13:58.755Z,14.53
2018-01-08T09:16:26.047Z,15.70
2018-01-08T09:18:53.310Z,15.63
2018-01-08T09:21:20.619Z,15.40
2018-01-08T09:23:47.912Z,14.13
2018-01-08T09:26:15.178Z,14.40
2018-01-08T09:28:42.440Z,15.57
2018-01-08T09:31:09.741Z,15.90
2018-01-08T09:33:37.001Z,15.37
2018-01-08T09:36:04.271Z,16.53
2018-01-08T09:38:31.556Z,16.87
2018-01-08T09:40:58.845Z,16.10
2018-01-08T09:43:26.148Z,16.60
2018-01-08T09:45:53.423Z,18.00
2018-01-08T09:48:20.694Z,15.07
2018-01-08T09:50:47.985Z,15.47
2018-01-08T09:53:15.271Z,17.33
2018-01-08T09:55:42.575Z,15.10
2018-01-08T09:58:09.868Z,16.40
2018-01-08T10:00:37.161Z,14.73
2018-01-08T10:03:10.283Z,13.43
2018-01-08T10:05:49.452Z,18.90
2018-01-08T10:08:28.674Z,17.10
2018-01-08T10:11:07.922Z,16.10
2018-01-08T10:13:47.089Z,15.30
2018-01-08T10:16:25.979Z,16.60
2018-01-08T10:19:15.154Z,14.87
2018-01-08T10:21:42.248Z,16.40
2018-01-08T10:24:09.512Z,14.50
2018-01-08T10:26:36.877Z,14.60
2018-01-08T10:29:04.152Z,15.33
2018-01-08T10:31:31.420Z,14.93
2018-01-08T10:33:58.733Z,14.97
2018-01-08T10:36:26.006Z,11.30
2018-01-08T10:38:53.383Z,15.00
2018-01-08T10:41:26.576Z,15.13
2018-01-08T10:43:59.684Z,15.20
2018-01-08T10:46:32.748Z,15.90
2018-01-08T10:49:05.645Z,13.73
2018-01-08T10:51:38.573Z,15.43
2018-01-08T10:54:05.833Z,15.23
2018-01-08T10:56:33.125Z,13.73
2018-01-08T10:59:00.407Z,13.57
2018-01-08T11:01:33.504Z,15.80
2018-01-08T11:04:00.801Z,15.07
2018-01-08T11:06:28.084Z,16.97
2018-01-08T11:08:55.370Z,15.07
2018-01-08T11:11:22.632Z,16.27
2018-01-08T11:13:49.945Z,12.67
2018-01-08T11:16:17.203Z,15.40
2018-01-08T11:18:44.472Z,14.77
2018-01-08T11:21:11.818Z,15.20
2018-01-08T11:23:39.168Z,16.03
2018-01-08T11:26:06.466Z,15.53
2018-01-08T11:28:33.759Z,14.63
2018-01-08T11:31:01.036Z,14.60
2018-01-08T11:33:28.394Z,14.83
2018-01-08T11:35:55.680Z,15.13
2018-01-08T11:38:22.996Z,14.20
2018-01-08T11:40:50.257Z,14.13
2018-01-08T11:43:17.524Z,14.00
2018-01-08T11:45:44.820Z,13.63
2018-01-08T11:48:12.115Z,19.33
2018-01-08T11:50:39.749Z,14.27
2018-01-08T11:53:07.018Z,13.60
2018-01-08T11:55:34.312Z,19.43
2018-01-08T11:58:01.569Z,14.10
2018-01-08T12:00:28.866Z,13.80
2018-01-08T12:02:56.128Z,14.17
2018-01-08T12:05:23.409Z,15.93
2018-01-08T12:07:50.716Z,15.40
2018-01-08T12:10:17.984Z,13.67
2018-01-08T12:12:45.336Z,13.23
2018-01-08T12:15:12.924Z,14.43
2018-01-08T12:17:40.281Z,13.83
2018-01-08T12:20:07.577Z,14.30
2018-01-08T12:22:34.865Z,14.13
2018-01-08T12:25:02.096Z,12.30
2018-01-08T12:27:29.384Z,14.27
2018-01-08T12:29:56.716Z,13.80
2018-01-08T12:32:24.119Z,13.53
2018-01-08T12:34:51.399Z,15.27
2018-01-08T12:37:18.684Z,12.03
2018-01-08T12:39:45.970Z,12.77
2018-01-08T12:42:13.262Z,13.23
2018-01-08T12:44:40.516Z,13.27
2018-01-08T12:47:07.814Z,13.20
2018-01-08T12:49:35.091Z,14.13
2018-01-08T12:52:02.362Z,13.70
2018-01-08T12:54:29.649Z,13.10
2018-01-08T12:56:56.983Z,12.47
2018-01-08T12:59:24.304Z,14.67
2018-01-08T13:01:51.563Z,14.40
2018-01-08T13:04:18.828Z,15.83
2018-01-08T13:06:46.130Z,14.03
2018-01-08T13:09:13.385Z,13.60
2018-01-08T13:11:40.685Z,12.77
2018-01-08T13:14:07.963Z,13.70
2018-01-08T13:16:35.227Z,14.10
2018-01-08T13:19:02.521Z,14.43
2018-01-08T13:21:29.781Z,12.93
2018-01-08T13:23:57.076Z,13.20
2018-01-08T13:26:24.335Z,13.50
2018-01-08T13:28:51.602Z,13.67
2018-01-08T13:31:18.900Z,14.00
2018-01-08T13:33:46.161Z,12.90
2018-01-08T13:36:13.416Z,12.50
2018-01-08T13:38:40.717Z,13.53
2018-01-08T13:41:07.984Z,10.90
2018-01-08T13:43:35.249Z,10.67
2018-01-08T13:46:02.536Z,11.80
2018-01-08T13:48:29.824Z,12.77
2018-01-08T13:50:57.117Z,12.90
2018-01-08T13:53:24.384Z,11.20
2018-01-08T13:55:51.676Z,16.97
2018-01-08T13:58:18.932Z,14.20
2018-01-08T14:00:46.192Z,12.57
2018-01-08T14:03:13.492Z,13.70
2018-01-08T14:05:40.756Z,12.90
2018-01-08T14:08:08.868Z,11.43
2018-01-08T14:10:36.163Z,11.90
2018-01-08T14:13:03.434Z,12.80
2018-01-08T14:15:30.725Z,12.10
2018-01-08T14:17:58.008Z,12.53
2018-01-08T14:20:25.277Z,11.20
2018-01-08T14:22:52.560Z,14.20
2018-01-08T14:25:19.820Z,11.53
2018-01-08T14:27:47.120Z,12.73
2018-01-08T14:30:14.379Z,13.00
2018-01-08T14:32:41.676Z,12.33
2018-01-08T14:35:08.948Z,13.27
2018-01-08T14:37:36.209Z,11.87
2018-01-08T14:40:03.501Z,11.53
2018-01-08T14:42:30.784Z,13.20
2018-01-08T14:44:58.145Z,12.27
2018-01-08T14:47:25.406Z,12.33
2018-01-08T14:49:52.698Z,12.50
2018-01-08T14:52:19.988Z,12.60
2018-01-08T14:54:47.284Z,12.63
2018-01-08T14:57:14.548Z,12.67
2018-01-08T14:59:41.812Z,12.83
2018-01-08T15:02:09.120Z,13.13
2018-01-08T15:04:36.376Z,12.77
2018-01-08T15:07:03.640Z,16.50
2018-01-08T15:09:30.930Z,11.30
2018-01-08T15:11:58.235Z,12.63
2018-01-08T15:14:25.600Z,13.23
2018-01-08T15:16:52.955Z,11.37
2018-01-08T15:19:20.232Z,12.43
2018-01-08T15:21:47.524Z,11.80
2018-01-08T15:24:14.808Z,15.10
2018-01-08T15:26:42.095Z,14.17
2018-01-08T15:29:09.380Z,14.93
2018-01-08T15:31:36.664Z,12.30
2018-01-08T15:34:03.928Z,17.27
2018-01-08T15:36:31.221Z,21.20
2018-01-08T15:38:58.532Z,12.23
2018-01-08T15:41:25.797Z,12.03
2018-01-08T15:43:53.084Z,12.80
2018-01-08T15:46:20.402Z,12.20
2018-01-08T15:48:47.684Z,12.27
2018-01-08T15:51:14.984Z,12.90
2018-01-08T15:53:42.261Z,11.57
2018-01-08T15:56:09.525Z,13.33
2018-01-08T15:58:36.866Z,16.70
2018-01-08T16:01:04.181Z,14.00
2018-01-08T16:03:31.425Z,14.87
2018-01-08T16:05:58.690Z,21.93
2018-01-08T16:08:25.989Z,33.80
2018-01-08T16:10:53.287Z,23.03
2018-01-08T16:13:20.554Z,14.57
2018-01-08T16:15:47.815Z,14.70
2018-01-08T16:18:15.104Z,15.47
2018-01-08T16:20:42.456Z,15.07
2018-01-08T16:23:09.816Z,15.37
2018-01-08T16:25:37.076Z,14.33
2018-01-08T16:28:04.365Z,14.80
2018-01-08T16:30:31.656Z,14.23
2018-01-08T16:32:58.921Z,15.60
2018-01-08T16:35:26.293Z,19.20
2018-01-08T16:37:53.559Z,19.80
2018-01-08T16:40:20.817Z,14.90
2018-01-08T16:42:48.100Z,16.60
2018-01-08T16:45:15.404Z,17.63
2018-01-08T16:47:42.700Z,14.50
2018-01-08T16:50:09.965Z,15.13
2018-01-08T16:52:37.231Z,12.50
2018-01-08T16:55:04.520Z,17.30
2018-01-08T16:57:31.789Z,14.10
2018-01-08T16:59:59.080Z,16.90
2018-01-08T17:02:26.376Z,16.10
2018-01-08T17:04:53.668Z,14.47
2018-01-08T17:07:20.936Z,14.50
2018-01-08T17:09:48.220Z,14.07
2018-01-08T17:12:15.481Z,15.87
2018-01-08T17:14:42.772Z,13.30
2018-01-08T17:17:10.062Z,14.50
2018-01-08T17:19:37.328Z,16.00
2018-01-08T17:22:04.628Z,15.63
2018-01-08T17:24:31.893Z,14.90
2018-01-08T17:26:59.156Z,19.50
2018-01-08T17:29:26.451Z,16.07
2018-01-08T17:31:53.708Z,15.30
2018-01-08T17:34:20.996Z,14.83
2018-01-08T17:36:48.256Z,15.97
2018-01-08T17:39:15.549Z,15.80
2018-01-08T17:41:42.816Z,14.50
2018-01-08T17:44:10.081Z,13.80
2018-01-08T17:46:37.454Z,13.10
2018-01-08T17:49:04.737Z,14.97
2018-01-08T17:51:32.030Z,15.90
2018-01-08T17:53:59.297Z,15.40
2018-01-08T17:56:26.582Z,15.20
2018-01-08T17:58:53.845Z,15.10
2018-01-08T18:01:21.133Z,13.37
2018-01-08T18:03:48.421Z,15.83
2018-01-08T18:06:15.711Z,16.70
2018-01-08T18:08:43.013Z,17.43
2018-01-08T18:11:10.278Z,17.30
2018-01-08T18:13:37.540Z,18.00
2018-01-08T18:16:04.839Z,20.40
2018-01-08T18:18:32.103Z,17.80
2018-01-08T18:20:59.369Z,21.17
2018-01-08T18:23:26.675Z,35.47
2018-01-08T18:25:53.934Z,22.93
2018-01-08T18:28:21.196Z,20.07
2018-01-08T18:30:48.512Z,20.73
2018-01-08T18:33:15.777Z,19.03
2018-01-08T18:35:43.036Z,21.20
2018-01-08T18:38:10.325Z,19.83
2018-01-08T18:40:37.612Z,17.10
2018-01-08T18:43:04.879Z,20.60
2018-01-08T18:45:32.158Z,16.90
2018-01-08T18:47:59.447Z,18.43
2018-01-08T18:50:26.732Z,17.30
2018-01-08T18:52:54.001Z,19.43
2018-01-08T18:55:21.281Z,22.63
2018-01-08T18:57:48.577Z,17.10
2018-01-08T19:00:15.840Z,17.13
2018-01-08T19:02:43.125Z,19.00
2018-01-08T19:05:10.388Z,17.07
2018-01-08T19:07:37.684Z,20.00
2018-01-08T19:10:04.948Z,16.73
2018-01-08T19:12:32.213Z,15.40
2018-01-08T19:14:59.498Z,17.10
2018-01-08T19:17:26.787Z,19.30
2018-01-08T19:19:54.068Z,16.90
2018-01-08T19:22:21.328Z,23.60
2018-01-08T19:24:48.657Z,14.70
2018-01-08T19:27:15.894Z,15.90
2018-01-08T19:29:43.156Z,15.00
2018-01-08T19:32:10.448Z,14.10
2018-01-08T19:34:37.744Z,15.80
2018-01-08T19:37:05.009Z,12.63
2018-01-08T19:39:32.314Z,13.47
2018-01-08T19:41:59.578Z,13.40
2018-01-08T19:44:26.848Z,12.20
2018-01-08T19:46:54.134Z,10.13
2018-01-08T19:49:21.444Z,12.17
2018-01-08T19:51:48.733Z,12.47
2018-01-08T19:54:16.065Z,13.10
2018-01-08T19:56:43.348Z,13.87
2018-01-08T19:59:10.636Z,11.73
2018-01-08T20:01:37.912Z,12.10
2018-01-08T20:04:05.188Z,12.50
2018-01-08T20:06:32.482Z,12.30
2018-01-08T20:08:59.739Z,12.27
2018-01-08T20:11:27.020Z,11.20
2018-01-08T20:13:54.293Z,13.60
2018-01-08T20:16:21.586Z,11.70
2018-01-08T20:18:48.845Z,11.77
2018-01-08T20:21:16.112Z,10.67
2018-01-08T20:23:43.388Z,10.43
2018-01-08T20:26:10.649Z,9.57
2018-01-08T20:28:37.927Z,10.90
2018-01-08T20:31:05.189Z,9.97
2018-01-08T20:33:32.464Z,10.67
2018-01-08T20:35:59.728Z,14.63
2018-01-08T20:38:27.014Z,10.57
2018-01-08T20:40:54.276Z,8.70
2018-01-08T20:43:21.550Z,10.70
2018-01-08T20:45:48.808Z,11.07
2018-01-08T20:48:16.088Z,13.00
2018-01-08T20:50:43.358Z,8.80
2018-01-08T20:53:10.636Z,10.10
2018-01-08T20:55:37.905Z,10.43
2018-01-08T20:58:05.187Z,9.57
2018-01-08T21:00:32.448Z,9.20
2018-01-08T21:02:59.734Z,9.33
2018-01-08T21:05:26.988Z,10.27
2018-01-08T21:07:54.265Z,9.90
2018-01-08T21:10:21.524Z,11.03
2018-01-08T21:12:48.813Z,10.97
2018-01-08T21:15:16.085Z,12.60
2018-01-08T21:17:43.369Z,10.70
2018-01-08T21:20:10.630Z,11.10
2018-01-08T21:22:37.909Z,9.10
2018-01-08T21:25:05.165Z,8.80
2018-01-08T21:27:32.440Z,9.53
2018-01-08T21:29:59.700Z,11.60
2018-01-08T21:32:26.974Z,10.73
2018-01-08T21:34:54.236Z,9.00
2018-01-08T21:37:21.496Z,9.10
2018-01-08T21:39:48.781Z,9.80
2018-01-08T21:42:16.125Z,9.20
2018-01-08T21:44:43.492Z,8.43
2018-01-08T21:47:10.752Z,8.80
2018-01-08T21:49:38.040Z,8.73
2018-01-08T21:52:05.294Z,9.57
2018-01-08T21:54:32.573Z,9.30
2018-01-08T21:56:59.828Z,9.00
2018-01-08T21:59:27.101Z,8.60
2018-01-08T22:01:54.356Z,8.17
2018-01-08T22:04:21.634Z,9.03
2018-01-08T22:06:48.890Z,9.00
2018-01-08T22:09:16.160Z,8.10
2018-01-08T22:11:43.430Z,9.37
2018-01-08T22:14:10.700Z,9.40
2018-01-08T22:16:37.956Z,8.17
2018-01-08T22:19:05.228Z,8.03
2018-01-08T22:21:32.485Z,8.40
2018-01-08T22:23:59.760Z,8.00
2018-01-08T22:26:27.030Z,7.90
2018-01-08T22:28:54.297Z,8.37
2018-01-08T22:31:21.552Z,8.50
2018-01-08T22:33:48.816Z,8.97
2018-01-08T22:36:16.088Z,8.87
2018-01-08T22:38:43.357Z,9.23
2018-01-08T22:41:10.637Z,10.03
2018-01-08T22:43:37.900Z,8.87
2018-01-08T22:46:05.185Z,9.50
2018-01-08T22:48:32.456Z,8.37
2018-01-08T22:50:59.730Z,10.97
2018-01-08T22:53:26.992Z,9.03
2018-01-08T22:55:54.268Z,8.33
2018-01-08T22:58:21.526Z,9.00
2018-01-08T23:00:48.801Z,8.57
2018-01-08T23:03:16.060Z,8.33
2018-01-08T23:05:43.332Z,7.53
2018-01-08T23:08:10.592Z,7.90
2018-01-08T23:10:37.876Z,9.23
2018-01-08T23:13:05.128Z,8.30
2018-01-08T23:15:32.406Z,8.67
2018-01-08T23:17:59.664Z,8.30
2018-01-08T23:20:27.924Z,8.63
2018-01-08T23:22:55.188Z,9.40
2018-01-08T23:25:22.472Z,8.30
2018-01-08T23:27:49.723Z,8.63
2018-01-08T23:30:16.985Z,8.50
2018-01-08T23:32:44.264Z,9.10
2018-01-08T23:35:11.520Z,9.10
2018-01-08T23:37:38.824Z,9.03
2018-01-08T23:40:06.053Z,8.40
2018-01-08T23:42:33.381Z,8.20
2018-01-08T23:45:00.596Z,8.73
2018-01-08T23:47:27.864Z,7.83
2018-01-08T23:49:55.128Z,8.93
2018-01-08T23:52:22.409Z,8.70
2018-01-08T23:54:49.669Z,8.30
2018-01-08T23:57:16.941Z,8.00
2018-01-08T23:59:44.195Z,8.70
